Terminal Aerodrome Forecast
Issued by NWS Houston/Galveston TX

Home | Current Version | Previous Version | Text Only | Print | Product List | Glossary On
Versions: 1 2 3 4 5 6 7 8 9 10 11 12 13 14 15 16 17 18 19 20 21 22 23 24 25
000
FTUS44 KHGX 271127
TAFHOU
TAF
KHOU 271127Z 2712/2812 19003KT P6SM FEW025 SCT250
     FM271700 19006KT P6SM SCT040 SCT250
     FM272000 17008KT P6SM VCSH SCT050 BKN250
     FM280000 17008KT P6SM FEW040 SCT250
     FM280500 20003KT P6SM SCT250=

USA.gov is the U.S. government's official web portal to all federal, state and local government web resources and services.